sensor_id;sensor_type;location;lat;lon;timestamp;temperature;humidity
65046;DHT22;54657;52.022;5.534;2024-01-11T00:00:38;-0.70;66.00
65046;DHT22;54657;52.022;5.534;2024-01-11T00:03:04;-0.60;65.60
65046;DHT22;54657;52.022;5.534;2024-01-11T00:05:29;-0.60;65.60
65046;DHT22;54657;52.022;5.534;2024-01-11T00:07:55;-0.70;65.50
65046;DHT22;54657;52.022;5.534;2024-01-11T00:10:20;-0.60;65.60
65046;DHT22;54657;52.022;5.534;2024-01-11T00:12:46;-0.60;65.50
65046;DHT22;54657;52.022;5.534;2024-01-11T00:15:12;-0.70;65.80
65046;DHT22;54657;52.022;5.534;2024-01-11T00:17:38;-0.80;66.60
65046;DHT22;54657;52.022;5.534;2024-01-11T00:20:04;-0.90;66.10
65046;DHT22;54657;52.022;5.534;2024-01-11T00:22:30;-0.80;66.10
65046;DHT22;54657;52.022;5.534;2024-01-11T00:24:55;-0.80;66.00
65046;DHT22;54657;52.022;5.534;2024-01-11T00:27:21;-0.70;66.00
65046;DHT22;54657;52.022;5.534;2024-01-11T00:29:46;-0.60;65.80
65046;DHT22;54657;52.022;5.534;2024-01-11T00:32:12;-0.60;65.90
65046;DHT22;54657;52.022;5.534;2024-01-11T00:34:37;-0.60;66.00
65046;DHT22;54657;52.022;5.534;2024-01-11T00:37:04;-0.70;66.10
65046;DHT22;54657;52.022;5.534;2024-01-11T00:39:29;-0.80;66.40
65046;DHT22;54657;52.022;5.534;2024-01-11T00:41:55;-1.00;66.60
65046;DHT22;54657;52.022;5.534;2024-01-11T00:44:21;-1.00;66.90
65046;DHT22;54657;52.022;5.534;2024-01-11T00:46:46;-1.00;66.90
65046;DHT22;54657;52.022;5.534;2024-01-11T00:49:12;-0.90;66.90
65046;DHT22;54657;52.022;5.534;2024-01-11T00:51:37;-0.90;67.00
65046;DHT22;54657;52.022;5.534;2024-01-11T00:54:03;-0.90;67.00
65046;DHT22;54657;52.022;5.534;2024-01-11T00:56:29;-0.90;66.90
65046;DHT22;54657;52.022;5.534;2024-01-11T00:58:54;-0.90;66.80
65046;DHT22;54657;52.022;5.534;2024-01-11T01:01:20;-0.90;66.80
65046;DHT22;54657;52.022;5.534;2024-01-11T01:03:45;-1.00;67.00
65046;DHT22;54657;52.022;5.534;2024-01-11T01:06:11;-1.10;67.10
65046;DHT22;54657;52.022;5.534;2024-01-11T01:08:36;-1.20;67.30
65046;DHT22;54657;52.022;5.534;2024-01-11T01:11:02;-1.20;67.40
65046;DHT22;54657;52.022;5.534;2024-01-11T01:13:28;-1.20;67.30
65046;DHT22;54657;52.022;5.534;2024-01-11T01:15:53;-1.20;67.30
65046;DHT22;54657;52.022;5.534;2024-01-11T01:18:19;-1.20;67.30
65046;DHT22;54657;52.022;5.534;2024-01-11T01:20:44;-1.10;67.10
65046;DHT22;54657;52.022;5.534;2024-01-11T01:23:10;-1.10;67.10
65046;DHT22;54657;52.022;5.534;2024-01-11T01:25:35;-1.10;67.10
65046;DHT22;54657;52.022;5.534;2024-01-11T01:28:01;-1.10;67.20
65046;DHT22;54657;52.022;5.534;2024-01-11T01:30:27;-1.20;67.30
65046;DHT22;54657;52.022;5.534;2024-01-11T01:32:53;-1.10;67.30
65046;DHT22;54657;52.022;5.534;2024-01-11T01:35:19;-1.10;67.20
65046;DHT22;54657;52.022;5.534;2024-01-11T01:37:44;-1.10;67.10
65046;DHT22;54657;52.022;5.534;2024-01-11T01:40:11;-1.10;67.10
65046;DHT22;54657;52.022;5.534;2024-01-11T01:42:44;-1.20;67.50
65046;DHT22;54657;52.022;5.534;2024-01-11T01:45:10;-1.40;67.80
65046;DHT22;54657;52.022;5.534;2024-01-11T01:47:37;-1.50;67.90
65046;DHT22;54657;52.022;5.534;2024-01-11T01:50:04;-1.60;68.10
65046;DHT22;54657;52.022;5.534;2024-01-11T01:52:30;-1.50;68.10
65046;DHT22;54657;52.022;5.534;2024-01-11T01:54:57;-1.40;68.00
65046;DHT22;54657;52.022;5.534;2024-01-11T01:57:24;-1.40;67.90
65046;DHT22;54657;52.022;5.534;2024-01-11T01:59:51;-1.40;67.80
65046;DHT22;54657;52.022;5.534;2024-01-11T02:02:19;-1.40;67.80
65046;DHT22;54657;52.022;5.534;2024-01-11T02:04:45;-1.40;67.90
65046;DHT22;54657;52.022;5.534;2024-01-11T02:07:11;-1.70;68.20
65046;DHT22;54657;52.022;5.534;2024-01-11T02:09:37;-1.80;68.50
65046;DHT22;54657;52.022;5.534;2024-01-11T02:12:03;-1.70;68.50
65046;DHT22;54657;52.022;5.534;2024-01-11T02:14:28;-1.60;68.30
65046;DHT22;54657;52.022;5.534;2024-01-11T02:16:54;-1.50;68.20
65046;DHT22;54657;52.022;5.534;2024-01-11T02:19:20;-1.40;68.00
65046;DHT22;54657;52.022;5.534;2024-01-11T02:21:47;-1.40;68.10
65046;DHT22;54657;52.022;5.534;2024-01-11T02:24:14;-1.40;67.90
65046;DHT22;54657;52.022;5.534;2024-01-11T02:26:59;-1.50;68.00
65046;DHT22;54657;52.022;5.534;2024-01-11T02:29:26;-1.50;68.20
65046;DHT22;54657;52.022;5.534;2024-01-11T02:31:51;-1.60;68.20
65046;DHT22;54657;52.022;5.534;2024-01-11T02:34:17;-1.80;68.30
65046;DHT22;54657;52.022;5.534;2024-01-11T02:36:44;-2.10;68.80
65046;DHT22;54657;52.022;5.534;2024-01-11T02:39:09;-2.10;69.10
65046;DHT22;54657;52.022;5.534;2024-01-11T02:41:37;-2.10;69.20
65046;DHT22;54657;52.022;5.534;2024-01-11T02:44:03;-2.10;69.30
65046;DHT22;54657;52.022;5.534;2024-01-11T02:46:29;-2.00;69.10
65046;DHT22;54657;52.022;5.534;2024-01-11T02:48:55;-1.90;68.90
65046;DHT22;54657;52.022;5.534;2024-01-11T02:51:21;-1.90;68.80
65046;DHT22;54657;52.022;5.534;2024-01-11T02:53:46;-1.90;68.90
65046;DHT22;54657;52.022;5.534;2024-01-11T02:56:12;-1.80;68.80
65046;DHT22;54657;52.022;5.534;2024-01-11T02:58:37;-1.80;68.80
65046;DHT22;54657;52.022;5.534;2024-01-11T03:01:03;-1.70;68.60
65046;DHT22;54657;52.022;5.534;2024-01-11T03:03:29;-1.80;68.50
65046;DHT22;54657;52.022;5.534;2024-01-11T03:05:54;-1.70;68.50
65046;DHT22;54657;52.022;5.534;2024-01-11T03:08:20;-1.70;68.50
65046;DHT22;54657;52.022;5.534;2024-01-11T03:10:45;-1.70;68.60
65046;DHT22;54657;52.022;5.534;2024-01-11T03:13:11;-1.60;68.50
65046;DHT22;54657;52.022;5.534;2024-01-11T03:15:38;-1.70;68.60
65046;DHT22;54657;52.022;5.534;2024-01-11T03:18:04;-1.70;68.50
65046;DHT22;54657;52.022;5.534;2024-01-11T03:20:29;-1.70;68.60
65046;DHT22;54657;52.022;5.534;2024-01-11T03:22:55;-1.90;68.80
65046;DHT22;54657;52.022;5.534;2024-01-11T03:25:20;-2.00;69.00
65046;DHT22;54657;52.022;5.534;2024-01-11T03:27:46;-2.10;69.30
65046;DHT22;54657;52.022;5.534;2024-01-11T03:30:12;-2.20;69.40
65046;DHT22;54657;52.022;5.534;2024-01-11T03:32:38;-2.20;70.10
65046;DHT22;54657;52.022;5.534;2024-01-11T03:35:06;-2.30;69.20
65046;DHT22;54657;52.022;5.534;2024-01-11T03:37:32;-2.30;69.10
65046;DHT22;54657;52.022;5.534;2024-01-11T03:39:58;-2.30;69.50
65046;DHT22;54657;52.022;5.534;2024-01-11T03:42:24;-2.30;69.10
65046;DHT22;54657;52.022;5.534;2024-01-11T03:44:49;-2.30;69.10
65046;DHT22;54657;52.022;5.534;2024-01-11T03:47:15;-2.30;69.40
65046;DHT22;54657;52.022;5.534;2024-01-11T03:49:40;-2.30;69.30
65046;DHT22;54657;52.022;5.534;2024-01-11T03:52:06;-2.40;69.00
65046;DHT22;54657;52.022;5.534;2024-01-11T03:54:32;-2.50;69.30
65046;DHT22;54657;52.022;5.534;2024-01-11T03:56:57;-2.50;69.70
65046;DHT22;54657;52.022;5.534;2024-01-11T03:59:23;-2.30;69.70
65046;DHT22;54657;52.022;5.534;2024-01-11T04:01:48;-2.30;69.80
65046;DHT22;54657;52.022;5.534;2024-01-11T04:04:14;-2.30;69.80
65046;DHT22;54657;52.022;5.534;2024-01-11T04:06:39;-2.20;69.40
65046;DHT22;54657;52.022;5.534;2024-01-11T04:09:05;-2.40;69.80
65046;DHT22;54657;52.022;5.534;2024-01-11T04:11:30;-2.50;70.30
65046;DHT22;54657;52.022;5.534;2024-01-11T04:13:56;-2.70;70.40
65046;DHT22;54657;52.022;5.534;2024-01-11T04:16:22;-2.80;70.50
65046;DHT22;54657;52.022;5.534;2024-01-11T04:18:47;-2.90;70.40
65046;DHT22;54657;52.022;5.534;2024-01-11T04:21:26;-2.90;70.90
65046;DHT22;54657;52.022;5.534;2024-01-11T04:23:55;-2.90;71.00
65046;DHT22;54657;52.022;5.534;2024-01-11T04:26:21;-3.00;70.80
65046;DHT22;54657;52.022;5.534;2024-01-11T04:28:47;-3.00;71.10
65046;DHT22;54657;52.022;5.534;2024-01-11T04:31:14;-3.10;71.30
65046;DHT22;54657;52.022;5.534;2024-01-11T04:33:40;-3.10;71.00
65046;DHT22;54657;52.022;5.534;2024-01-11T04:36:07;-3.10;71.70
65046;DHT22;54657;52.022;5.534;2024-01-11T04:38:33;-3.20;72.00
65046;DHT22;54657;52.022;5.534;2024-01-11T04:40:59;-3.20;71.50
65046;DHT22;54657;52.022;5.534;2024-01-11T04:43:24;-3.20;72.80
65046;DHT22;54657;52.022;5.534;2024-01-11T04:45:50;-3.20;73.00
65046;DHT22;54657;52.022;5.534;2024-01-11T04:48:16;-3.20;71.70
65046;DHT22;54657;52.022;5.534;2024-01-11T04:50:41;-3.00;71.90
65046;DHT22;54657;52.022;5.534;2024-01-11T04:53:07;-3.00;71.50
65046;DHT22;54657;52.022;5.534;2024-01-11T04:55:33;-2.90;71.80
65046;DHT22;54657;52.022;5.534;2024-01-11T04:57:58;-2.90;71.60
65046;DHT22;54657;52.022;5.534;2024-01-11T05:00:24;-3.10;71.60
65046;DHT22;54657;52.022;5.534;2024-01-11T05:02:49;-3.10;71.30
65046;DHT22;54657;52.022;5.534;2024-01-11T05:05:15;-3.10;71.30
65046;DHT22;54657;52.022;5.534;2024-01-11T05:07:41;-3.10;70.80
65046;DHT22;54657;52.022;5.534;2024-01-11T05:10:07;-3.10;71.30
65046;DHT22;54657;52.022;5.534;2024-01-11T05:12:33;-3.00;71.50
65046;DHT22;54657;52.022;5.534;2024-01-11T05:14:58;-3.00;71.20
65046;DHT22;54657;52.022;5.534;2024-01-11T05:17:25;-3.10;71.20
65046;DHT22;54657;52.022;5.534;2024-01-11T05:19:51;-3.10;71.30
65046;DHT22;54657;52.022;5.534;2024-01-11T05:22:17;-3.10;72.00
65046;DHT22;54657;52.022;5.534;2024-01-11T05:24:43;-3.20;71.80
65046;DHT22;54657;52.022;5.534;2024-01-11T05:27:08;-3.10;72.00
65046;DHT22;54657;52.022;5.534;2024-01-11T05:29:34;-3.00;71.80
65046;DHT22;54657;52.022;5.534;2024-01-11T05:31:59;-2.90;71.20
65046;DHT22;54657;52.022;5.534;2024-01-11T05:34:25;-2.90;71.70
65046;DHT22;54657;52.022;5.534;2024-01-11T05:36:50;-2.80;71.30
65046;DHT22;54657;52.022;5.534;2024-01-11T05:39:16;-2.80;71.50
65046;DHT22;54657;52.022;5.534;2024-01-11T05:41:45;-2.70;71.50
65046;DHT22;54657;52.022;5.534;2024-01-11T05:44:11;-2.60;71.20
65046;DHT22;54657;52.022;5.534;2024-01-11T05:46:36;-2.50;71.00
65046;DHT22;54657;52.022;5.534;2024-01-11T05:49:02;-2.40;70.90
65046;DHT22;54657;52.022;5.534;2024-01-11T05:51:28;-2.30;70.70
65046;DHT22;54657;52.022;5.534;2024-01-11T05:53:54;-2.20;70.90
65046;DHT22;54657;52.022;5.534;2024-01-11T05:56:20;-2.30;70.60
65046;DHT22;54657;52.022;5.534;2024-01-11T05:58:46;-2.40;70.80
65046;DHT22;54657;52.022;5.534;2024-01-11T06:01:12;-2.30;70.90
65046;DHT22;54657;52.022;5.534;2024-01-11T06:03:37;-2.20;70.80
65046;DHT22;54657;52.022;5.534;2024-01-11T06:06:04;-2.20;70.70
65046;DHT22;54657;52.022;5.534;2024-01-11T06:08:30;-2.10;70.60
65046;DHT22;54657;52.022;5.534;2024-01-11T06:10:57;-2.00;70.50
65046;DHT22;54657;52.022;5.534;2024-01-11T06:13:23;-2.00;70.30
65046;DHT22;54657;52.022;5.534;2024-01-11T06:15:48;-2.20;70.30
65046;DHT22;54657;52.022;5.534;2024-01-11T06:18:15;-2.40;70.80
65046;DHT22;54657;52.022;5.534;2024-01-11T06:20:41;-2.50;71.00
65046;DHT22;54657;52.022;5.534;2024-01-11T06:23:06;-2.70;71.50
65046;DHT22;54657;52.022;5.534;2024-01-11T06:25:32;-2.60;71.70
65046;DHT22;54657;52.022;5.534;2024-01-11T06:27:57;-2.50;72.20
65046;DHT22;54657;52.022;5.534;2024-01-11T06:30:23;-2.50;71.40
65046;DHT22;54657;52.022;5.534;2024-01-11T06:32:48;-2.60;72.60
65046;DHT22;54657;52.022;5.534;2024-01-11T06:35:14;-2.80;72.30
65046;DHT22;54657;52.022;5.534;2024-01-11T06:37:40;-2.90;72.10
65046;DHT22;54657;52.022;5.534;2024-01-11T06:40:06;-3.00;72.20
65046;DHT22;54657;52.022;5.534;2024-01-11T06:42:33;-3.00;72.20
65046;DHT22;54657;52.022;5.534;2024-01-11T06:44:59;-2.90;72.30
65046;DHT22;54657;52.022;5.534;2024-01-11T06:47:24;-2.90;72.40
65046;DHT22;54657;52.022;5.534;2024-01-11T06:49:50;-3.00;72.40
65046;DHT22;54657;52.022;5.534;2024-01-11T06:52:15;-3.10;72.50
65046;DHT22;54657;52.022;5.534;2024-01-11T06:54:41;-3.10;72.40
65046;DHT22;54657;52.022;5.534;2024-01-11T06:57:07;-3.20;72.70
65046;DHT22;54657;52.022;5.534;2024-01-11T06:59:33;-3.30;73.20
65046;DHT22;54657;52.022;5.534;2024-01-11T07:01:58;-3.30;73.30
65046;DHT22;54657;52.022;5.534;2024-01-11T07:04:24;-3.30;73.10
65046;DHT22;54657;52.022;5.534;2024-01-11T07:06:49;-3.40;73.90
65046;DHT22;54657;52.022;5.534;2024-01-11T07:09:15;-3.40;73.20
65046;DHT22;54657;52.022;5.534;2024-01-11T07:11:43;-3.40;73.50
65046;DHT22;54657;52.022;5.534;2024-01-11T07:14:09;-3.40;73.00
65046;DHT22;54657;52.022;5.534;2024-01-11T07:16:35;-3.40;73.60
65046;DHT22;54657;52.022;5.534;2024-01-11T07:19:01;-3.20;73.60
65046;DHT22;54657;52.022;5.534;2024-01-11T07:21:26;-3.00;73.20
65046;DHT22;54657;52.022;5.534;2024-01-11T07:23:59;-2.90;72.70
65046;DHT22;54657;52.022;5.534;2024-01-11T07:26:25;-2.90;72.80
65046;DHT22;54657;52.022;5.534;2024-01-11T07:28:51;-2.80;72.60
65046;DHT22;54657;52.022;5.534;2024-01-11T07:31:17;-2.60;72.40
65046;DHT22;54657;52.022;5.534;2024-01-11T07:33:43;-2.60;72.30
65046;DHT22;54657;52.022;5.534;2024-01-11T07:36:09;-2.60;72.10
65046;DHT22;54657;52.022;5.534;2024-01-11T07:38:35;-2.50;72.10
65046;DHT22;54657;52.022;5.534;2024-01-11T07:41:00;-2.50;71.90
65046;DHT22;54657;52.022;5.534;2024-01-11T07:43:27;-2.40;71.90
65046;DHT22;54657;52.022;5.534;2024-01-11T07:45:54;-2.40;71.70
65046;DHT22;54657;52.022;5.534;2024-01-11T07:48:22;-2.40;71.50
65046;DHT22;54657;52.022;5.534;2024-01-11T07:50:48;-2.40;71.50
65046;DHT22;54657;52.022;5.534;2024-01-11T07:53:14;-2.50;71.60
65046;DHT22;54657;52.022;5.534;2024-01-11T07:55:40;-2.40;71.70
65046;DHT22;54657;52.022;5.534;2024-01-11T07:58:06;-2.40;71.60
65046;DHT22;54657;52.022;5.534;2024-01-11T08:00:32;-2.30;71.70
65046;DHT22;54657;52.022;5.534;2024-01-11T08:02:57;-2.40;71.50
65046;DHT22;54657;52.022;5.534;2024-01-11T08:05:23;-2.40;71.60
65046;DHT22;54657;52.022;5.534;2024-01-11T08:07:48;-2.30;71.70
65046;DHT22;54657;52.022;5.534;2024-01-11T08:10:14;-2.30;71.50
65046;DHT22;54657;52.022;5.534;2024-01-11T08:12:40;-2.30;71.50
65046;DHT22;54657;52.022;5.534;2024-01-11T08:15:05;-2.30;71.60
65046;DHT22;54657;52.022;5.534;2024-01-11T08:17:31;-2.30;71.70
65046;DHT22;54657;52.022;5.534;2024-01-11T08:19:56;-2.30;71.60
65046;DHT22;54657;52.022;5.534;2024-01-11T08:22:23;-2.40;71.50
65046;DHT22;54657;52.022;5.534;2024-01-11T08:24:48;-2.70;72.00
65046;DHT22;54657;52.022;5.534;2024-01-11T08:27:14;-2.70;72.80
65046;DHT22;54657;52.022;5.534;2024-01-11T08:29:42;-2.60;72.80
65046;DHT22;54657;52.022;5.534;2024-01-11T08:32:08;-2.50;72.70
65046;DHT22;54657;52.022;5.534;2024-01-11T08:34:34;-2.30;72.50
65046;DHT22;54657;52.022;5.534;2024-01-11T08:36:59;-2.20;72.30
65046;DHT22;54657;52.022;5.534;2024-01-11T08:39:25;-2.20;72.10
65046;DHT22;54657;52.022;5.534;2024-01-11T08:41:50;-2.30;72.10
65046;DHT22;54657;52.022;5.534;2024-01-11T08:44:18;-2.40;72.60
65046;DHT22;54657;52.022;5.534;2024-01-11T08:46:43;-2.50;72.80
65046;DHT22;54657;52.022;5.534;2024-01-11T08:49:09;-2.50;72.90
65046;DHT22;54657;52.022;5.534;2024-01-11T08:51:34;-2.60;73.00
65046;DHT22;54657;52.022;5.534;2024-01-11T08:54:01;-2.70;73.30
65046;DHT22;54657;52.022;5.534;2024-01-11T08:56:26;-2.70;73.50
65046;DHT22;54657;52.022;5.534;2024-01-11T08:58:53;-2.70;73.90
65046;DHT22;54657;52.022;5.534;2024-01-11T09:01:18;-2.80;73.00
65046;DHT22;54657;52.022;5.534;2024-01-11T09:03:44;-2.80;73.20
65046;DHT22;54657;52.022;5.534;2024-01-11T09:06:10;-2.80;74.30
65046;DHT22;54657;52.022;5.534;2024-01-11T09:08:36;-2.80;74.00
65046;DHT22;54657;52.022;5.534;2024-01-11T09:11:02;-2.70;74.10
65046;DHT22;54657;52.022;5.534;2024-01-11T09:13:28;-2.70;73.90
65046;DHT22;54657;52.022;5.534;2024-01-11T09:15:54;-2.80;74.00
65046;DHT22;54657;52.022;5.534;2024-01-11T09:18:20;-2.80;73.50
65046;DHT22;54657;52.022;5.534;2024-01-11T09:20:46;-2.80;73.80
65046;DHT22;54657;52.022;5.534;2024-01-11T09:23:13;-2.80;73.90
65046;DHT22;54657;52.022;5.534;2024-01-11T09:25:38;-2.70;73.60
65046;DHT22;54657;52.022;5.534;2024-01-11T09:28:05;-2.70;74.80
65046;DHT22;54657;52.022;5.534;2024-01-11T09:30:30;-2.50;74.30
65046;DHT22;54657;52.022;5.534;2024-01-11T09:32:56;-2.50;74.10
65046;DHT22;54657;52.022;5.534;2024-01-11T09:35:22;-2.40;74.10
65046;DHT22;54657;52.022;5.534;2024-01-11T09:37:49;-2.30;74.90
65046;DHT22;54657;52.022;5.534;2024-01-11T09:40:15;-2.30;74.30
65046;DHT22;54657;52.022;5.534;2024-01-11T09:42:41;-2.20;75.10
65046;DHT22;54657;52.022;5.534;2024-01-11T09:45:12;-2.20;73.70
65046;DHT22;54657;52.022;5.534;2024-01-11T09:47:39;-2.10;73.90
65046;DHT22;54657;52.022;5.534;2024-01-11T09:50:06;-2.10;74.30
65046;DHT22;54657;52.022;5.534;2024-01-11T09:52:32;-2.00;75.80
65046;DHT22;54657;52.022;5.534;2024-01-11T09:54:59;-1.90;75.10
65046;DHT22;54657;52.022;5.534;2024-01-11T09:57:30;-1.90;75.00
65046;DHT22;54657;52.022;5.534;2024-01-11T09:59:56;-1.80;75.00
65046;DHT22;54657;52.022;5.534;2024-01-11T10:02:26;-1.70;75.00
65046;DHT22;54657;52.022;5.534;2024-01-11T10:04:54;-1.70;74.80
65046;DHT22;54657;52.022;5.534;2024-01-11T10:07:24;-1.60;77.10
65046;DHT22;54657;52.022;5.534;2024-01-11T10:09:53;-1.60;76.20
65046;DHT22;54657;52.022;5.534;2024-01-11T10:12:19;-1.60;77.50
65046;DHT22;54657;52.022;5.534;2024-01-11T10:14:46;-1.60;76.70
65046;DHT22;54657;52.022;5.534;2024-01-11T10:17:12;-1.60;78.40
65046;DHT22;54657;52.022;5.534;2024-01-11T10:19:38;-1.50;79.30
65046;DHT22;54657;52.022;5.534;2024-01-11T10:22:03;-1.40;79.00
65046;DHT22;54657;52.022;5.534;2024-01-11T10:24:30;-1.30;76.70
65046;DHT22;54657;52.022;5.534;2024-01-11T10:26:56;-1.20;77.90
65046;DHT22;54657;52.022;5.534;2024-01-11T10:29:22;-1.00;75.90
65046;DHT22;54657;52.022;5.534;2024-01-11T10:31:49;-0.90;75.10
65046;DHT22;54657;52.022;5.534;2024-01-11T10:34:16;-0.90;80.40
65046;DHT22;54657;52.022;5.534;2024-01-11T10:36:41;-0.80;76.20
65046;DHT22;54657;52.022;5.534;2024-01-11T10:39:09;-0.80;77.00
65046;DHT22;54657;52.022;5.534;2024-01-11T10:41:46;-0.70;77.20
65046;DHT22;54657;52.022;5.534;2024-01-11T10:44:20;-0.70;78.20
65046;DHT22;54657;52.022;5.534;2024-01-11T10:46:49;-0.70;78.30
65046;DHT22;54657;52.022;5.534;2024-01-11T10:49:18;-0.60;76.00
65046;DHT22;54657;52.022;5.534;2024-01-11T10:51:59;-0.60;79.10
65046;DHT22;54657;52.022;5.534;2024-01-11T10:54:27;-0.50;76.30
65046;DHT22;54657;52.022;5.534;2024-01-11T10:56:53;-0.50;77.30
65046;DHT22;54657;52.022;5.534;2024-01-11T10:59:21;-0.40;75.70
65046;DHT22;54657;52.022;5.534;2024-01-11T11:01:51;-0.40;77.10
65046;DHT22;54657;52.022;5.534;2024-01-11T11:04:22;-0.30;76.80
65046;DHT22;54657;52.022;5.534;2024-01-11T11:06:50;-0.30;77.30
65046;DHT22;54657;52.022;5.534;2024-01-11T11:09:17;-0.20;80.10
65046;DHT22;54657;52.022;5.534;2024-01-11T11:11:45;-0.20;76.90
65046;DHT22;54657;52.022;5.534;2024-01-11T11:14:14;-0.20;77.50
65046;DHT22;54657;52.022;5.534;2024-01-11T11:16:40;-0.10;77.10
65046;DHT22;54657;52.022;5.534;2024-01-11T11:19:06;-0.10;80.00
65046;DHT22;54657;52.022;5.534;2024-01-11T11:21:32;0.10;78.70
65046;DHT22;54657;52.022;5.534;2024-01-11T11:23:57;0.20;77.50
65046;DHT22;54657;52.022;5.534;2024-01-11T11:26:26;0.30;77.30
65046;DHT22;54657;52.022;5.534;2024-01-11T11:28:52;0.30;76.90
65046;DHT22;54657;52.022;5.534;2024-01-11T11:31:43;0.30;77.00
65046;DHT22;54657;52.022;5.534;2024-01-11T11:34:11;0.30;79.90
65046;DHT22;54657;52.022;5.534;2024-01-11T11:36:39;0.30;79.70
65046;DHT22;54657;52.022;5.534;2024-01-11T11:39:04;0.40;78.20
65046;DHT22;54657;52.022;5.534;2024-01-11T11:41:31;0.50;79.40
65046;DHT22;54657;52.022;5.534;2024-01-11T11:44:04;0.50;79.50
65046;DHT22;54657;52.022;5.534;2024-01-11T11:46:30;0.50;81.00
65046;DHT22;54657;52.022;5.534;2024-01-11T11:48:57;0.50;80.60
65046;DHT22;54657;52.022;5.534;2024-01-11T11:51:23;0.50;79.10
65046;DHT22;54657;52.022;5.534;2024-01-11T11:53:51;0.50;80.10
65046;DHT22;54657;52.022;5.534;2024-01-11T11:56:18;0.60;80.00
65046;DHT22;54657;52.022;5.534;2024-01-11T11:58:45;0.60;78.50
65046;DHT22;54657;52.022;5.534;2024-01-11T12:01:11;0.70;81.00
65046;DHT22;54657;52.022;5.534;2024-01-11T12:03:38;0.80;80.90
65046;DHT22;54657;52.022;5.534;2024-01-11T12:06:07;0.90;79.40
65046;DHT22;54657;52.022;5.534;2024-01-11T12:08:34;0.90;79.80
65046;DHT22;54657;52.022;5.534;2024-01-11T12:10:59;0.90;78.70
65046;DHT22;54657;52.022;5.534;2024-01-11T12:13:26;0.90;79.50
65046;DHT22;54657;52.022;5.534;2024-01-11T12:15:51;0.90;80.20
65046;DHT22;54657;52.022;5.534;2024-01-11T12:18:17;1.10;79.70
65046;DHT22;54657;52.022;5.534;2024-01-11T12:20:43;1.20;79.50
65046;DHT22;54657;52.022;5.534;2024-01-11T12:23:08;1.30;79.50
65046;DHT22;54657;52.022;5.534;2024-01-11T12:25:35;1.40;79.70
65046;DHT22;54657;52.022;5.534;2024-01-11T12:28:01;1.50;79.50
65046;DHT22;54657;52.022;5.534;2024-01-11T12:30:27;1.60;79.50
65046;DHT22;54657;52.022;5.534;2024-01-11T12:32:53;1.70;79.50
65046;DHT22;54657;52.022;5.534;2024-01-11T12:35:20;1.90;79.10
65046;DHT22;54657;52.022;5.534;2024-01-11T12:37:53;2.00;79.10
65046;DHT22;54657;52.022;5.534;2024-01-11T12:40:19;2.20;78.90
65046;DHT22;54657;52.022;5.534;2024-01-11T12:42:45;2.10;78.40
65046;DHT22;54657;52.022;5.534;2024-01-11T12:45:10;2.10;79.30
65046;DHT22;54657;52.022;5.534;2024-01-11T12:47:36;2.20;79.00
65046;DHT22;54657;52.022;5.534;2024-01-11T12:50:03;2.30;79.00
65046;DHT22;54657;52.022;5.534;2024-01-11T12:52:28;2.40;78.80
65046;DHT22;54657;52.022;5.534;2024-01-11T12:54:55;2.50;78.80
65046;DHT22;54657;52.022;5.534;2024-01-11T12:57:22;2.60;78.60
65046;DHT22;54657;52.022;5.534;2024-01-11T12:59:48;2.70;78.50
65046;DHT22;54657;52.022;5.534;2024-01-11T13:02:14;2.70;78.40
65046;DHT22;54657;52.022;5.534;2024-01-11T13:04:42;2.80;78.50
65046;DHT22;54657;52.022;5.534;2024-01-11T13:07:08;2.90;78.60
65046;DHT22;54657;52.022;5.534;2024-01-11T13:09:34;2.90;78.60
65046;DHT22;54657;52.022;5.534;2024-01-11T13:12:00;3.00;78.60
65046;DHT22;54657;52.022;5.534;2024-01-11T13:14:26;3.00;78.60
65046;DHT22;54657;52.022;5.534;2024-01-11T13:16:51;3.10;78.40
65046;DHT22;54657;52.022;5.534;2024-01-11T13:19:17;3.10;78.30
65046;DHT22;54657;52.022;5.534;2024-01-11T13:21:43;3.10;78.60
65046;DHT22;54657;52.022;5.534;2024-01-11T13:24:08;3.20;78.60
65046;DHT22;54657;52.022;5.534;2024-01-11T13:26:35;3.20;78.40
65046;DHT22;54657;52.022;5.534;2024-01-11T13:29:04;3.20;78.60
65046;DHT22;54657;52.022;5.534;2024-01-11T13:31:30;3.30;78.60
65046;DHT22;54657;52.022;5.534;2024-01-11T13:33:56;3.30;78.40
65046;DHT22;54657;52.022;5.534;2024-01-11T13:36:22;3.40;78.40
65046;DHT22;54657;52.022;5.534;2024-01-11T13:38:49;3.40;78.40
65046;DHT22;54657;52.022;5.534;2024-01-11T13:41:15;3.30;78.40
65046;DHT22;54657;52.022;5.534;2024-01-11T13:43:42;3.30;78.70
65046;DHT22;54657;52.022;5.534;2024-01-11T13:46:08;3.30;79.00
65046;DHT22;54657;52.022;5.534;2024-01-11T13:48:34;3.40;78.80
65046;DHT22;54657;52.022;5.534;2024-01-11T13:51:00;3.40;78.90
65046;DHT22;54657;52.022;5.534;2024-01-11T13:53:25;3.50;78.80
65046;DHT22;54657;52.022;5.534;2024-01-11T13:55:51;3.50;78.80
65046;DHT22;54657;52.022;5.534;2024-01-11T13:58:17;3.60;78.70
65046;DHT22;54657;52.022;5.534;2024-01-11T14:00:43;3.70;78.80
65046;DHT22;54657;52.022;5.534;2024-01-11T14:03:09;3.70;78.60
65046;DHT22;54657;52.022;5.534;2024-01-11T14:05:36;3.80;78.50
65046;DHT22;54657;52.022;5.534;2024-01-11T14:08:02;3.80;78.50
65046;DHT22;54657;52.022;5.534;2024-01-11T14:10:31;3.70;78.50
65046;DHT22;54657;52.022;5.534;2024-01-11T14:12:58;3.70;79.00
65046;DHT22;54657;52.022;5.534;2024-01-11T14:15:27;3.70;79.30
65046;DHT22;54657;52.022;5.534;2024-01-11T14:17:53;3.60;79.00
65046;DHT22;54657;52.022;5.534;2024-01-11T14:20:18;3.60;79.10
65046;DHT22;54657;52.022;5.534;2024-01-11T14:22:45;3.70;79.10
65046;DHT22;54657;52.022;5.534;2024-01-11T14:25:21;3.70;79.10
65046;DHT22;54657;52.022;5.534;2024-01-11T14:27:47;3.70;79.20
65046;DHT22;54657;52.022;5.534;2024-01-11T14:30:13;3.70;78.90
65046;DHT22;54657;52.022;5.534;2024-01-11T14:32:39;3.80;79.00
65046;DHT22;54657;52.022;5.534;2024-01-11T14:35:07;3.80;79.00
65046;DHT22;54657;52.022;5.534;2024-01-11T14:37:34;3.80;78.90
65046;DHT22;54657;52.022;5.534;2024-01-11T14:40:00;3.80;78.90
65046;DHT22;54657;52.022;5.534;2024-01-11T14:42:26;3.80;79.10
65046;DHT22;54657;52.022;5.534;2024-01-11T14:44:52;3.90;79.20
65046;DHT22;54657;52.022;5.534;2024-01-11T14:47:18;3.90;79.10
65046;DHT22;54657;52.022;5.534;2024-01-11T14:49:45;3.90;79.10
65046;DHT22;54657;52.022;5.534;2024-01-11T14:52:10;3.80;79.80
65046;DHT22;54657;52.022;5.534;2024-01-11T14:54:36;3.80;79.30
65046;DHT22;54657;52.022;5.534;2024-01-11T14:57:01;3.70;79.40
65046;DHT22;54657;52.022;5.534;2024-01-11T14:59:27;3.70;79.40
65046;DHT22;54657;52.022;5.534;2024-01-11T15:01:53;3.70;79.50
65046;DHT22;54657;52.022;5.534;2024-01-11T15:04:18;3.70;79.60
65046;DHT22;54657;52.022;5.534;2024-01-11T15:06:44;3.60;79.90
65046;DHT22;54657;52.022;5.534;2024-01-11T15:09:10;3.60;79.70
65046;DHT22;54657;52.022;5.534;2024-01-11T15:11:38;3.60;79.80
65046;DHT22;54657;52.022;5.534;2024-01-11T15:14:05;3.60;79.90
65046;DHT22;54657;52.022;5.534;2024-01-11T15:16:31;3.60;79.90
65046;DHT22;54657;52.022;5.534;2024-01-11T15:18:57;3.60;80.00
65046;DHT22;54657;52.022;5.534;2024-01-11T15:21:24;3.60;80.60
65046;DHT22;54657;52.022;5.534;2024-01-11T15:23:50;3.60;81.50
65046;DHT22;54657;52.022;5.534;2024-01-11T15:26:16;3.50;80.60
65046;DHT22;54657;52.022;5.534;2024-01-11T15:28:41;3.60;80.40